sensor_id;sensor_type;location;lat;lon;timestamp;temperature;humidity
16287;DHT22;8251;53.568;10.018;2023-01-08T00:02:28;12.30;80.00
16287;DHT22;8251;53.568;10.018;2023-01-08T00:04:55;12.30;80.00
16287;DHT22;8251;53.568;10.018;2023-01-08T00:07:22;12.30;80.00
16287;DHT22;8251;53.568;10.018;2023-01-08T00:09:49;12.30;80.10
16287;DHT22;8251;53.568;10.018;2023-01-08T00:12:18;12.30;79.80
16287;DHT22;8251;53.568;10.018;2023-01-08T00:14:48;12.40;79.90
16287;DHT22;8251;53.568;10.018;2023-01-08T00:17:15;12.40;79.80
16287;DHT22;8251;53.568;10.018;2023-01-08T00:19:45;12.40;79.80
16287;DHT22;8251;53.568;10.018;2023-01-08T00:22:12;12.40;79.60
16287;DHT22;8251;53.568;10.018;2023-01-08T00:24:39;12.30;79.50
16287;DHT22;8251;53.568;10.018;2023-01-08T00:27:05;12.30;79.70
16287;DHT22;8251;53.568;10.018;2023-01-08T00:29:34;12.30;79.70
16287;DHT22;8251;53.568;10.018;2023-01-08T00:32:02;12.30;80.00
16287;DHT22;8251;53.568;10.018;2023-01-08T00:34:29;12.30;79.90
16287;DHT22;8251;53.568;10.018;2023-01-08T00:36:58;12.30;80.00
16287;DHT22;8251;53.568;10.018;2023-01-08T00:39:25;12.30;79.80
16287;DHT22;8251;53.568;10.018;2023-01-08T00:41:52;12.30;79.90
16287;DHT22;8251;53.568;10.018;2023-01-08T00:44:24;12.30;79.80
16287;DHT22;8251;53.568;10.018;2023-01-08T00:46:52;12.30;79.80
16287;DHT22;8251;53.568;10.018;2023-01-08T00:49:19;12.30;80.00
16287;DHT22;8251;53.568;10.018;2023-01-08T00:51:46;12.30;80.00
16287;DHT22;8251;53.568;10.018;2023-01-08T00:54:13;12.40;80.00
16287;DHT22;8251;53.568;10.018;2023-01-08T00:56:40;12.30;79.90
16287;DHT22;8251;53.568;10.018;2023-01-08T00:59:07;12.40;80.00
16287;DHT22;8251;53.568;10.018;2023-01-08T01:01:34;12.40;79.90
16287;DHT22;8251;53.568;10.018;2023-01-08T01:04:02;12.40;80.90
16287;DHT22;8251;53.568;10.018;2023-01-08T01:06:29;12.40;80.10
16287;DHT22;8251;53.568;10.018;2023-01-08T01:08:59;12.40;80.00
16287;DHT22;8251;53.568;10.018;2023-01-08T01:11:27;12.40;79.50
16287;DHT22;8251;53.568;10.018;2023-01-08T01:13:55;12.40;79.90
16287;DHT22;8251;53.568;10.018;2023-01-08T01:16:23;12.50;80.10
16287;DHT22;8251;53.568;10.018;2023-01-08T01:18:50;12.40;80.30
16287;DHT22;8251;53.568;10.018;2023-01-08T01:21:22;12.30;80.40
16287;DHT22;8251;53.568;10.018;2023-01-08T01:23:52;12.30;80.30
16287;DHT22;8251;53.568;10.018;2023-01-08T01:26:21;12.30;80.50
16287;DHT22;8251;53.568;10.018;2023-01-08T01:28:49;12.30;80.30
16287;DHT22;8251;53.568;10.018;2023-01-08T01:31:16;12.30;80.70
16287;DHT22;8251;53.568;10.018;2023-01-08T01:33:44;12.30;80.90
16287;DHT22;8251;53.568;10.018;2023-01-08T01:36:12;12.30;81.20
16287;DHT22;8251;53.568;10.018;2023-01-08T01:38:44;12.30;81.30
16287;DHT22;8251;53.568;10.018;2023-01-08T01:41:22;12.30;81.10
16287;DHT22;8251;53.568;10.018;2023-01-08T01:43:53;12.30;81.30
16287;DHT22;8251;53.568;10.018;2023-01-08T01:46:33;12.30;81.30
16287;DHT22;8251;53.568;10.018;2023-01-08T01:49:07;12.30;81.10
16287;DHT22;8251;53.568;10.018;2023-01-08T01:51:36;12.40;81.20
16287;DHT22;8251;53.568;10.018;2023-01-08T01:54:07;12.30;80.90
16287;DHT22;8251;53.568;10.018;2023-01-08T01:56:35;12.30;81.30
16287;DHT22;8251;53.568;10.018;2023-01-08T01:59:03;12.30;81.20
16287;DHT22;8251;53.568;10.018;2023-01-08T02:01:31;12.30;81.40
16287;DHT22;8251;53.568;10.018;2023-01-08T02:04:00;12.40;81.40
16287;DHT22;8251;53.568;10.018;2023-01-08T02:06:34;12.40;81.50
16287;DHT22;8251;53.568;10.018;2023-01-08T02:09:11;12.40;81.30
16287;DHT22;8251;53.568;10.018;2023-01-08T02:11:46;12.50;81.10
16287;DHT22;8251;53.568;10.018;2023-01-08T02:14:38;12.50;81.20
16287;DHT22;8251;53.568;10.018;2023-01-08T02:17:10;12.50;81.20
16287;DHT22;8251;53.568;10.018;2023-01-08T02:19:45;12.50;81.40
16287;DHT22;8251;53.568;10.018;2023-01-08T02:22:21;12.50;81.30
16287;DHT22;8251;53.568;10.018;2023-01-08T02:24:55;12.50;81.40
16287;DHT22;8251;53.568;10.018;2023-01-08T02:27:28;12.50;81.40
16287;DHT22;8251;53.568;10.018;2023-01-08T02:29:57;12.60;81.20
16287;DHT22;8251;53.568;10.018;2023-01-08T02:32:25;12.50;81.30
16287;DHT22;8251;53.568;10.018;2023-01-08T02:34:53;12.60;81.40
16287;DHT22;8251;53.568;10.018;2023-01-08T02:37:20;12.60;81.20
16287;DHT22;8251;53.568;10.018;2023-01-08T02:40:03;12.60;81.20
16287;DHT22;8251;53.568;10.018;2023-01-08T02:42:38;12.60;80.90
16287;DHT22;8251;53.568;10.018;2023-01-08T02:45:18;12.60;81.00
16287;DHT22;8251;53.568;10.018;2023-01-08T02:47:53;12.70;81.00
16287;DHT22;8251;53.568;10.018;2023-01-08T02:50:25;12.60;81.00
16287;DHT22;8251;53.568;10.018;2023-01-08T02:53:00;12.70;81.00
16287;DHT22;8251;53.568;10.018;2023-01-08T02:55:29;12.70;81.00
16287;DHT22;8251;53.568;10.018;2023-01-08T02:58:03;12.60;80.90
16287;DHT22;8251;53.568;10.018;2023-01-08T03:00:32;12.60;81.00
16287;DHT22;8251;53.568;10.018;2023-01-08T03:03:05;12.60;81.10
16287;DHT22;8251;53.568;10.018;2023-01-08T03:05:33;12.70;81.20
16287;DHT22;8251;53.568;10.018;2023-01-08T03:08:01;12.60;81.20
16287;DHT22;8251;53.568;10.018;2023-01-08T03:10:29;12.70;81.20
16287;DHT22;8251;53.568;10.018;2023-01-08T03:13:00;12.60;81.10
16287;DHT22;8251;53.568;10.018;2023-01-08T03:15:35;12.60;81.20
16287;DHT22;8251;53.568;10.018;2023-01-08T03:18:07;12.60;81.40
16287;DHT22;8251;53.568;10.018;2023-01-08T03:20:36;12.70;81.40
16287;DHT22;8251;53.568;10.018;2023-01-08T03:23:06;12.70;81.30
16287;DHT22;8251;53.568;10.018;2023-01-08T03:25:37;12.70;81.20
16287;DHT22;8251;53.568;10.018;2023-01-08T03:28:12;12.70;81.20
16287;DHT22;8251;53.568;10.018;2023-01-08T03:30:41;12.70;81.00
16287;DHT22;8251;53.568;10.018;2023-01-08T03:33:11;12.70;81.00
16287;DHT22;8251;53.568;10.018;2023-01-08T03:35:40;12.70;81.00
16287;DHT22;8251;53.568;10.018;2023-01-08T03:38:16;12.80;81.00
16287;DHT22;8251;53.568;10.018;2023-01-08T03:40:47;12.70;80.80
16287;DHT22;8251;53.568;10.018;2023-01-08T03:43:15;12.70;81.00
16287;DHT22;8251;53.568;10.018;2023-01-08T03:45:46;12.70;81.10
16287;DHT22;8251;53.568;10.018;2023-01-08T03:48:19;12.70;81.00
16287;DHT22;8251;53.568;10.018;2023-01-08T03:50:46;12.70;81.00
16287;DHT22;8251;53.568;10.018;2023-01-08T03:53:16;12.70;81.10
16287;DHT22;8251;53.568;10.018;2023-01-08T03:55:43;12.70;81.10
16287;DHT22;8251;53.568;10.018;2023-01-08T03:58:10;12.60;81.20
16287;DHT22;8251;53.568;10.018;2023-01-08T04:00:39;12.60;81.40
16287;DHT22;8251;53.568;10.018;2023-01-08T04:03:05;12.60;81.60
16287;DHT22;8251;53.568;10.018;2023-01-08T04:05:35;12.60;81.80
16287;DHT22;8251;53.568;10.018;2023-01-08T04:08:02;12.60;81.80
16287;DHT22;8251;53.568;10.018;2023-01-08T04:10:29;12.60;81.90
16287;DHT22;8251;53.568;10.018;2023-01-08T04:12:59;12.50;81.80
16287;DHT22;8251;53.568;10.018;2023-01-08T04:15:26;12.50;82.10
16287;DHT22;8251;53.568;10.018;2023-01-08T04:17:54;12.50;82.40
16287;DHT22;8251;53.568;10.018;2023-01-08T04:20:21;12.50;82.10
16287;DHT22;8251;53.568;10.018;2023-01-08T04:22:50;12.40;82.50
16287;DHT22;8251;53.568;10.018;2023-01-08T04:25:17;12.50;82.60
16287;DHT22;8251;53.568;10.018;2023-01-08T04:27:50;12.50;82.40
16287;DHT22;8251;53.568;10.018;2023-01-08T04:30:17;12.50;82.40
16287;DHT22;8251;53.568;10.018;2023-01-08T04:32:44;12.50;82.50
16287;DHT22;8251;53.568;10.018;2023-01-08T04:35:13;12.50;82.50
16287;DHT22;8251;53.568;10.018;2023-01-08T04:37:40;12.50;82.60
16287;DHT22;8251;53.568;10.018;2023-01-08T04:40:08;12.50;82.40
16287;DHT22;8251;53.568;10.018;2023-01-08T04:42:37;12.50;82.50
16287;DHT22;8251;53.568;10.018;2023-01-08T04:45:07;12.50;82.60
16287;DHT22;8251;53.568;10.018;2023-01-08T04:47:37;12.50;82.60
16287;DHT22;8251;53.568;10.018;2023-01-08T04:50:05;12.50;82.80
16287;DHT22;8251;53.568;10.018;2023-01-08T04:52:34;12.50;82.80
16287;DHT22;8251;53.568;10.018;2023-01-08T04:55:01;12.50;83.10
16287;DHT22;8251;53.568;10.018;2023-01-08T04:57:28;12.50;83.20
16287;DHT22;8251;53.568;10.018;2023-01-08T04:59:55;12.50;83.00
16287;DHT22;8251;53.568;10.018;2023-01-08T05:02:22;12.50;83.00
16287;DHT22;8251;53.568;10.018;2023-01-08T05:04:52;12.40;83.20
16287;DHT22;8251;53.568;10.018;2023-01-08T05:07:19;12.30;83.50
16287;DHT22;8251;53.568;10.018;2023-01-08T05:09:47;12.40;83.50
16287;DHT22;8251;53.568;10.018;2023-01-08T05:12:15;12.40;83.50
16287;DHT22;8251;53.568;10.018;2023-01-08T05:14:42;12.50;83.40
16287;DHT22;8251;53.568;10.018;2023-01-08T05:17:11;12.50;83.30
16287;DHT22;8251;53.568;10.018;2023-01-08T05:19:38;12.60;83.10
16287;DHT22;8251;53.568;10.018;2023-01-08T05:22:04;12.60;82.60
16287;DHT22;8251;53.568;10.018;2023-01-08T05:24:35;12.60;83.00
16287;DHT22;8251;53.568;10.018;2023-01-08T05:27:03;12.60;83.00
16287;DHT22;8251;53.568;10.018;2023-01-08T05:29:30;12.70;83.20
16287;DHT22;8251;53.568;10.018;2023-01-08T05:31:56;12.60;83.00
16287;DHT22;8251;53.568;10.018;2023-01-08T05:34:23;12.70;82.90
16287;DHT22;8251;53.568;10.018;2023-01-08T05:36:51;12.70;82.80
16287;DHT22;8251;53.568;10.018;2023-01-08T05:39:20;12.80;82.80
16287;DHT22;8251;53.568;10.018;2023-01-08T05:41:47;12.80;82.40
16287;DHT22;8251;53.568;10.018;2023-01-08T05:44:16;12.70;82.60
16287;DHT22;8251;53.568;10.018;2023-01-08T05:46:45;12.70;82.50
16287;DHT22;8251;53.568;10.018;2023-01-08T05:49:13;12.70;82.70
16287;DHT22;8251;53.568;10.018;2023-01-08T05:51:39;12.80;82.70
16287;DHT22;8251;53.568;10.018;2023-01-08T05:54:06;12.80;82.60
16287;DHT22;8251;53.568;10.018;2023-01-08T05:56:34;12.80;82.60
16287;DHT22;8251;53.568;10.018;2023-01-08T05:59:03;12.70;82.60
16287;DHT22;8251;53.568;10.018;2023-01-08T06:01:31;12.70;82.80
16287;DHT22;8251;53.568;10.018;2023-01-08T06:03:58;12.70;82.80
16287;DHT22;8251;53.568;10.018;2023-01-08T06:06:25;12.70;82.80
16287;DHT22;8251;53.568;10.018;2023-01-08T06:08:55;12.70;82.90
16287;DHT22;8251;53.568;10.018;2023-01-08T06:11:22;12.70;82.80
16287;DHT22;8251;53.568;10.018;2023-01-08T06:13:49;12.70;82.90
16287;DHT22;8251;53.568;10.018;2023-01-08T06:16:16;12.70;82.60
16287;DHT22;8251;53.568;10.018;2023-01-08T06:18:44;12.80;82.90
16287;DHT22;8251;53.568;10.018;2023-01-08T06:21:11;12.80;82.80
16287;DHT22;8251;53.568;10.018;2023-01-08T06:23:43;12.80;82.80
16287;DHT22;8251;53.568;10.018;2023-01-08T06:26:10;12.80;82.50
16287;DHT22;8251;53.568;10.018;2023-01-08T06:28:37;12.80;82.60
16287;DHT22;8251;53.568;10.018;2023-01-08T06:31:04;12.80;82.60
16287;DHT22;8251;53.568;10.018;2023-01-08T06:33:31;12.80;82.70
16287;DHT22;8251;53.568;10.018;2023-01-08T06:36:00;12.80;82.70
16287;DHT22;8251;53.568;10.018;2023-01-08T06:38:30;12.80;82.80
16287;DHT22;8251;53.568;10.018;2023-01-08T06:40:57;12.80;82.90
16287;DHT22;8251;53.568;10.018;2023-01-08T06:43:24;12.70;82.80
16287;DHT22;8251;53.568;10.018;2023-01-08T06:45:54;12.80;82.80
16287;DHT22;8251;53.568;10.018;2023-01-08T06:48:23;12.80;82.80
16287;DHT22;8251;53.568;10.018;2023-01-08T06:50:50;12.80;82.80
16287;DHT22;8251;53.568;10.018;2023-01-08T06:53:19;12.80;82.70
16287;DHT22;8251;53.568;10.018;2023-01-08T06:55:46;12.90;82.80
16287;DHT22;8251;53.568;10.018;2023-01-08T06:58:13;12.90;82.80
16287;DHT22;8251;53.568;10.018;2023-01-08T07:00:40;12.90;82.60
16287;DHT22;8251;53.568;10.018;2023-01-08T07:03:07;12.90;82.70
16287;DHT22;8251;53.568;10.018;2023-01-08T07:05:43;12.90;82.40
16287;DHT22;8251;53.568;10.018;2023-01-08T07:08:10;12.90;82.50
16287;DHT22;8251;53.568;10.018;2023-01-08T07:10:39;12.90;82.60
16287;DHT22;8251;53.568;10.018;2023-01-08T07:13:06;12.90;82.70
16287;DHT22;8251;53.568;10.018;2023-01-08T07:15:34;12.90;82.60
16287;DHT22;8251;53.568;10.018;2023-01-08T07:18:05;12.90;82.60
16287;DHT22;8251;53.568;10.018;2023-01-08T07:20:32;12.90;82.60
16287;DHT22;8251;53.568;10.018;2023-01-08T07:23:00;12.90;82.60
16287;DHT22;8251;53.568;10.018;2023-01-08T07:25:28;12.90;82.60
16287;DHT22;8251;53.568;10.018;2023-01-08T07:27:57;12.90;82.60
16287;DHT22;8251;53.568;10.018;2023-01-08T07:30:27;12.90;82.60
16287;DHT22;8251;53.568;10.018;2023-01-08T07:33:00;12.90;82.60
16287;DHT22;8251;53.568;10.018;2023-01-08T07:35:27;12.90;82.70
16287;DHT22;8251;53.568;10.018;2023-01-08T07:37:57;12.80;82.60
16287;DHT22;8251;53.568;10.018;2023-01-08T07:40:24;12.80;82.60
16287;DHT22;8251;53.568;10.018;2023-01-08T07:42:58;12.80;82.80
16287;DHT22;8251;53.568;10.018;2023-01-08T07:45:25;12.80;82.90
16287;DHT22;8251;53.568;10.018;2023-01-08T07:47:52;12.80;83.00
16287;DHT22;8251;53.568;10.018;2023-01-08T07:50:20;12.80;82.90
16287;DHT22;8251;53.568;10.018;2023-01-08T07:52:47;12.80;82.90
16287;DHT22;8251;53.568;10.018;2023-01-08T07:55:14;12.80;83.00
16287;DHT22;8251;53.568;10.018;2023-01-08T07:57:41;12.80;83.00
16287;DHT22;8251;53.568;10.018;2023-01-08T08:00:12;12.80;83.10
16287;DHT22;8251;53.568;10.018;2023-01-08T08:02:40;12.90;83.20
16287;DHT22;8251;53.568;10.018;2023-01-08T08:05:11;12.90;83.10
16287;DHT22;8251;53.568;10.018;2023-01-08T08:07:38;12.90;83.20
16287;DHT22;8251;53.568;10.018;2023-01-08T08:10:06;12.80;83.20
16287;DHT22;8251;53.568;10.018;2023-01-08T08:12:33;12.80;83.30
16287;DHT22;8251;53.568;10.018;2023-01-08T08:15:00;12.80;83.50
16287;DHT22;8251;53.568;10.018;2023-01-08T08:17:28;12.80;83.70
16287;DHT22;8251;53.568;10.018;2023-01-08T08:19:55;12.80;84.40
16287;DHT22;8251;53.568;10.018;2023-01-08T08:22:25;12.80;84.90
16287;DHT22;8251;53.568;10.018;2023-01-08T08:24:52;12.70;85.40
16287;DHT22;8251;53.568;10.018;2023-01-08T08:27:19;12.70;85.50
16287;DHT22;8251;53.568;10.018;2023-01-08T08:29:47;12.60;85.90
16287;DHT22;8251;53.568;10.018;2023-01-08T08:32:14;12.60;85.90
16287;DHT22;8251;53.568;10.018;2023-01-08T08:34:43;12.70;86.10
16287;DHT22;8251;53.568;10.018;2023-01-08T08:37:09;12.70;86.10
16287;DHT22;8251;53.568;10.018;2023-01-08T08:39:36;12.60;86.10
16287;DHT22;8251;53.568;10.018;2023-01-08T08:42:05;12.70;86.10
16287;DHT22;8251;53.568;10.018;2023-01-08T08:44:33;12.60;86.10
16287;DHT22;8251;53.568;10.018;2023-01-08T08:47:00;12.60;86.30
16287;DHT22;8251;53.568;10.018;2023-01-08T08:49:27;12.60;86.50
16287;DHT22;8251;53.568;10.018;2023-01-08T08:51:55;12.60;86.50
16287;DHT22;8251;53.568;10.018;2023-01-08T08:54:22;12.60;86.60
16287;DHT22;8251;53.568;10.018;2023-01-08T08:56:50;12.60;86.90
16287;DHT22;8251;53.568;10.018;2023-01-08T08:59:16;12.50;87.40
16287;DHT22;8251;53.568;10.018;2023-01-08T09:01:43;12.50;87.50
16287;DHT22;8251;53.568;10.018;2023-01-08T09:04:10;12.50;87.40
16287;DHT22;8251;53.568;10.018;2023-01-08T09:06:38;12.50;87.60
16287;DHT22;8251;53.568;10.018;2023-01-08T09:09:07;12.40;87.90
16287;DHT22;8251;53.568;10.018;2023-01-08T09:11:34;12.40;88.10
16287;DHT22;8251;53.568;10.018;2023-01-08T09:14:01;12.40;88.10
16287;DHT22;8251;53.568;10.018;2023-01-08T09:16:28;12.40;88.10
16287;DHT22;8251;53.568;10.018;2023-01-08T09:18:55;12.40;88.20
16287;DHT22;8251;53.568;10.018;2023-01-08T09:21:22;12.40;88.40
16287;DHT22;8251;53.568;10.018;2023-01-08T09:23:49;12.40;88.60
16287;DHT22;8251;53.568;10.018;2023-01-08T09:26:17;12.40;88.70
16287;DHT22;8251;53.568;10.018;2023-01-08T09:28:44;12.40;88.80
16287;DHT22;8251;53.568;10.018;2023-01-08T09:31:11;12.40;88.90
16287;DHT22;8251;53.568;10.018;2023-01-08T09:33:39;12.40;89.00
16287;DHT22;8251;53.568;10.018;2023-01-08T09:36:09;12.40;89.10
16287;DHT22;8251;53.568;10.018;2023-01-08T09:38:38;12.40;89.10
16287;DHT22;8251;53.568;10.018;2023-01-08T09:41:07;12.40;89.30
16287;DHT22;8251;53.568;10.018;2023-01-08T09:43:39;12.40;89.50
16287;DHT22;8251;53.568;10.018;2023-01-08T09:46:13;12.50;89.40
16287;DHT22;8251;53.568;10.018;2023-01-08T09:48:46;12.50;89.20
16287;DHT22;8251;53.568;10.018;2023-01-08T09:51:18;12.50;89.10
16287;DHT22;8251;53.568;10.018;2023-01-08T09:53:48;12.50;89.20
16287;DHT22;8251;53.568;10.018;2023-01-08T09:56:17;12.60;89.10
16287;DHT22;8251;53.568;10.018;2023-01-08T09:58:51;12.60;89.10
16287;DHT22;8251;53.568;10.018;2023-01-08T10:01:21;12.60;89.00
16287;DHT22;8251;53.568;10.018;2023-01-08T10:03:51;12.70;89.00
16287;DHT22;8251;53.568;10.018;2023-01-08T10:06:22;12.50;89.00
16287;DHT22;8251;53.568;10.018;2023-01-08T10:08:50;12.50;89.20
16287;DHT22;8251;53.568;10.018;2023-01-08T10:11:19;12.50;89.20
16287;DHT22;8251;53.568;10.018;2023-01-08T10:13:52;12.50;88.40
16287;DHT22;8251;53.568;10.018;2023-01-08T10:16:25;12.50;89.20
16287;DHT22;8251;53.568;10.018;2023-01-08T10:18:54;12.50;89.10
16287;DHT22;8251;53.568;10.018;2023-01-08T10:21:28;12.50;89.40
16287;DHT22;8251;53.568;10.018;2023-01-08T10:23:56;12.60;89.60
16287;DHT22;8251;53.568;10.018;2023-01-08T10:26:27;12.60;89.60
16287;DHT22;8251;53.568;10.018;2023-01-08T10:29:14;12.60;89.50
16287;DHT22;8251;53.568;10.018;2023-01-08T10:31:50;12.70;89.20
16287;DHT22;8251;53.568;10.018;2023-01-08T10:34:24;12.70;89.10
16287;DHT22;8251;53.568;10.018;2023-01-08T10:36:52;12.70;88.80
16287;DHT22;8251;53.568;10.018;2023-01-08T10:39:25;12.70;88.80
16287;DHT22;8251;53.568;10.018;2023-01-08T10:41:56;12.60;89.00
16287;DHT22;8251;53.568;10.018;2023-01-08T10:44:25;12.70;89.20
16287;DHT22;8251;53.568;10.018;2023-01-08T10:46:56;12.70;89.10
16287;DHT22;8251;53.568;10.018;2023-01-08T10:49:32;12.70;89.00
16287;DHT22;8251;53.568;10.018;2023-01-08T10:52:00;12.70;88.60
16287;DHT22;8251;53.568;10.018;2023-01-08T10:54:35;12.70;88.80
16287;DHT22;8251;53.568;10.018;2023-01-08T10:57:19;12.70;88.90
16287;DHT22;8251;53.568;10.018;2023-01-08T10:59:47;12.80;88.90
16287;DHT22;8251;53.568;10.018;2023-01-08T11:02:28;12.80;88.70
16287;DHT22;8251;53.568;10.018;2023-01-08T11:04:56;12.90;88.50
16287;DHT22;8251;53.568;10.018;2023-01-08T11:07:25;12.90;88.40
16287;DHT22;8251;53.568;10.018;2023-01-08T11:09:55;12.90;88.60
16287;DHT22;8251;53.568;10.018;2023-01-08T11:12:33;12.80;88.80
16287;DHT22;8251;53.568;10.018;2023-01-08T11:15:02;12.80;89.30
16287;DHT22;8251;53.568;10.018;2023-01-08T11:17:31;12.80;88.40
16287;DHT22;8251;53.568;10.018;2023-01-08T11:20:08;12.80;89.40
16287;DHT22;8251;53.568;10.018;2023-01-08T11:22:38;12.80;89.50
16287;DHT22;8251;53.568;10.018;2023-01-08T11:25:12;12.80;89.70
16287;DHT22;8251;53.568;10.018;2023-01-08T11:27:41;12.80;89.70
16287;DHT22;8251;53.568;10.018;2023-01-08T11:30:16;12.80;89.90
16287;DHT22;8251;53.568;10.018;2023-01-08T11:32:48;12.90;90.00
16287;DHT22;8251;53.568;10.018;2023-01-08T11:35:19;12.90;89.80
16287;DHT22;8251;53.568;10.018;2023-01-08T11:37:54;13.00;89.60
16287;DHT22;8251;53.568;10.018;2023-01-08T11:40:31;13.00;89.40
16287;DHT22;8251;53.568;10.018;2023-01-08T11:43:17;13.10;89.30
16287;DHT22;8251;53.568;10.018;2023-01-08T11:46:04;13.10;88.80
16287;DHT22;8251;53.568;10.018;2023-01-08T11:48:54;13.20;89.00
16287;DHT22;8251;53.568;10.018;2023-01-08T11:51:38;13.20;88.80
16287;DHT22;8251;53.568;10.018;2023-01-08T11:54:17;13.20;88.90
16287;DHT22;8251;53.568;10.018;2023-01-08T11:56:58;13.20;88.60
16287;DHT22;8251;53.568;10.018;2023-01-08T11:59:39;13.30;88.60
16287;DHT22;8251;53.568;10.018;2023-01-08T12:02:19;13.20;88.00
16287;DHT22;8251;53.568;10.018;2023-01-08T12:07:51;13.10;87.50
16287;DHT22;8251;53.568;10.018;2023-01-08T12:10:24;13.00;87.00
16287;DHT22;8251;53.568;10.018;2023-01-08T12:13:02;13.10;86.80
16287;DHT22;8251;53.568;10.018;2023-01-08T12:15:38;13.00;85.80
16287;DHT22;8251;53.568;10.018;2023-01-08T12:18:22;13.00;85.50
16287;DHT22;8251;53.568;10.018;2023-01-08T12:20:57;13.00;85.50
16287;DHT22;8251;53.568;10.018;2023-01-08T12:23:37;13.00;84.90
16287;DHT22;8251;53.568;10.018;2023-01-08T12:26:15;13.00;83.90
16287;DHT22;8251;53.568;10.018;2023-01-08T12:28:57;13.00;83.50
16287;DHT22;8251;53.568;10.018;2023-01-08T12:31:40;13.00;84.10
16287;DHT22;8251;53.568;10.018;2023-01-08T12:34:17;13.10;84.30
16287;DHT22;8251;53.568;10.018;2023-01-08T12:36:47;13.00;84.20
16287;DHT22;8251;53.568;10.018;2023-01-08T12:39:20;13.10;83.90
16287;DHT22;8251;53.568;10.018;2023-01-08T12:41:48;13.10;83.80
16287;DHT22;8251;53.568;10.018;2023-01-08T12:44:23;13.20;84.10
16287;DHT22;8251;53.568;10.018;2023-01-08T12:46:52;13.20;84.60
16287;DHT22;8251;53.568;10.018;2023-01-08T12:49:25;13.20;84.50
16287;DHT22;8251;53.568;10.018;2023-01-08T12:52:00;13.20;84.80
16287;DHT22;8251;53.568;10.018;2023-01-08T12:54:31;13.30;85.00
16287;DHT22;8251;53.568;10.018;2023-01-08T12:57:04;13.40;85.00
16287;DHT22;8251;53.568;10.018;2023-01-08T12:59:38;13.30;85.40
16287;DHT22;8251;53.568;10.018;2023-01-08T13:02:14;13.40;85.60
16287;DHT22;8251;53.568;10.018;2023-01-08T13:04:46;13.40;85.70
16287;DHT22;8251;53.568;10.018;2023-01-08T13:07:18;13.40;85.90
16287;DHT22;8251;53.568;10.018;2023-01-08T13:10:04;13.50;85.90
16287;DHT22;8251;53.568;10.018;2023-01-08T13:12:41;13.50;85.80
16287;DHT22;8251;53.568;10.018;2023-01-08T13:15:21;13.50;85.40
16287;DHT22;8251;53.568;10.018;2023-01-08T13:17:57;13.40;84.60
16287;DHT22;8251;53.568;10.018;2023-01-08T13:20:30;13.50;84.80
16287;DHT22;8251;53.568;10.018;2023-01-08T13:23:01;13.50;85.20
16287;DHT22;8251;53.568;10.018;2023-01-08T13:25:31;13.50;84.90
16287;DHT22;8251;53.568;10.018;2023-01-08T13:28:00;13.50;84.90
16287;DHT22;8251;53.568;10.018;2023-01-08T13:30:36;13.40;84.80
16287;DHT22;8251;53.568;10.018;2023-01-08T13:33:26;13.40;84.90
16287;DHT22;8251;53.568;10.018;2023-01-08T13:36:17;13.50;84.90
16287;DHT22;8251;53.568;10.018;2023-01-08T13:38:46;13.50;84.40
16287;DHT22;8251;53.568;10.018;2023-01-08T13:41:25;13.40;84.20
16287;DHT22;8251;53.568;10.018;2023-01-08T13:43:59;13.40;83.80
16287;DHT22;8251;53.568;10.018;2023-01-08T13:46:32;13.50;83.60
16287;DHT22;8251;53.568;10.018;2023-01-08T13:49:02;13.40;82.80
16287;DHT22;8251;53.568;10.018;2023-01-08T13:51:41;13.40;82.60
16287;DHT22;8251;53.568;10.018;2023-01-08T13:54:19;13.40;82.60
16287;DHT22;8251;53.568;10.018;2023-01-08T13:56:51;13.40;82.50
16287;DHT22;8251;53.568;10.018;2023-01-08T13:59:33;13.40;82.30
16287;DHT22;8251;53.568;10.018;2023-01-08T14:02:03;13.40;81.90
16287;DHT22;8251;53.568;10.018;2023-01-08T14:04:30;13.40;81.90
16287;DHT22;8251;53.568;10.018;2023-01-08T14:07:11;13.40;81.10
16287;DHT22;8251;53.568;10.018;2023-01-08T14:09:38;13.40;79.40
16287;DHT22;8251;53.568;10.018;2023-01-08T14:12:11;13.30;79.90
16287;DHT22;8251;53.568;10.018;2023-01-08T14:14:48;13.30;80.00
16287;DHT22;8251;53.568;10.018;2023-01-08T14:17:20;13.20;79.90
16287;DHT22;8251;53.568;10.018;2023-01-08T14:19:47;13.10;79.90
16287;DHT22;8251;53.568;10.018;2023-01-08T14:22:18;13.10;80.60
16287;DHT22;8251;53.568;10.018;2023-01-08T14:24:51;13.00;79.30
16287;DHT22;8251;53.568;10.018;2023-01-08T14:27:24;13.10;79.30
16287;DHT22;8251;53.568;10.018;2023-01-08T14:29:56;13.00;77.50
16287;DHT22;8251;53.568;10.018;2023-01-08T14:32:28;13.00;77.90
16287;DHT22;8251;53.568;10.018;2023-01-08T14:34:57;12.90;76.10
16287;DHT22;8251;53.568;10.018;2023-01-08T14:37:29;12.90;77.00
16287;DHT22;8251;53.568;10.018;2023-01-08T14:39:57;12.90;76.90
16287;DHT22;8251;53.568;10.018;2023-01-08T14:42:28;12.90;76.70
16287;DHT22;8251;53.568;10.018;2023-01-08T14:45:16;12.90;76.90
16287;DHT22;8251;53.568;10.018;2023-01-08T14:47:45;12.90;76.40
16287;DHT22;8251;53.568;10.018;2023-01-08T14:50:19;12.90;75.80
16287;DHT22;8251;53.568;10.018;2023-01-08T14:52:49;12.90;76.50
16287;DHT22;8251;53.568;10.018;2023-01-08T14:55:17;12.90;76.20
16287;DHT22;8251;53.568;10.018;2023-01-08T14:57:47;12.90;76.40
16287;DHT22;8251;53.568;10.018;2023-01-08T15:00:16;12.90;76.10
16287;DHT22;8251;53.568;10.018;2023-01-08T15:02:45;12.90;75.60
16287;DHT22;8251;53.568;10.018;2023-01-08T15:05:15;12.90;75.50
16287;DHT22;8251;53.568;10.018;2023-01-08T15:07:58;12.90;75.80
16287;DHT22;8251;53.568;10.018;2023-01-08T15:10:37;12.90;75.90
16287;DHT22;8251;53.568;10.018;2023-01-08T15:13:20;12.90;76.20
16287;DHT22;8251;53.568;10.018;2023-01-08T15:15:53;12.90;75.70
16287;DHT22;8251;53.568;10.018;2023-01-08T15:18:21;12.90;75.80
16287;DHT22;8251;53.568;10.018;2023-01-08T15:20:49;12.80;75.90
16287;DHT22;8251;53.568;10.018;2023-01-08T15:23:27;12.80;76.00
16287;DHT22;8251;53.568;10.018;2023-01-08T15:25:57;12.80;76.00
16287;DHT22;8251;53.568;10.018;2023-01-08T15:28:25;12.70;75.70
16287;DHT22;8251;53.568;10.018;2023-01-08T15:30:52;12.70;76.20
16287;DHT22;8251;53.568;10.018;2023-01-08T15:33:21;12.70;76.10
16287;DHT22;8251;53.568;10.018;2023-01-08T15:35:49;12.70;76.40
16287;DHT22;8251;53.568;10.018;2023-01-08T15:38:17;12.70;76.30
16287;DHT22;8251;53.568;10.018;2023-01-08T15:40:49;12.70;76.40
16287;DHT22;8251;53.568;10.018;2023-01-08T15:43:18;12.70;76.50
16287;DHT22;8251;53.568;10.018;2023-01-08T15:45:45;12.80;76.60
16287;DHT22;8251;53.568;10.018;2023-01-08T15:48:13;12.80;76.50
16287;DHT22;8251;53.568;10.018;2023-01-08T15:50:42;12.80;76.90
16287;DHT22;8251;53.568;10.018;2023-01-08T15:53:16;12.70;76.40
16287;DHT22;8251;53.568;10.018;2023-01-08T15:55:43;12.70;76.20